sensor_id;sensor_type;location;lat;lon;timestamp;P1;durP1;ratioP1;P2;durP2;ratioP2
15273;SDS011;7738;49.532;11.156;2022-10-04T00:00:59;3.38;;;3.08;;
15273;SDS011;7738;49.532;11.156;2022-10-04T00:03:32;6.15;;;2.95;;
15273;SDS011;7738;49.532;11.156;2022-10-04T00:06:10;4.40;;;2.65;;
15273;SDS011;7738;49.532;11.156;2022-10-04T00:08:43;2.65;;;2.30;;
15273;SDS011;7738;49.532;11.156;2022-10-04T00:11:18;8.07;;;2.28;;
15273;SDS011;7738;49.532;11.156;2022-10-04T00:13:53;5.05;;;2.33;;
15273;SDS011;7738;49.532;11.156;2022-10-04T00:16:25;2.80;;;1.55;;
15273;SDS011;7738;49.532;11.156;2022-10-04T00:22:09;3.83;;;2.20;;
15273;SDS011;7738;49.532;11.156;2022-10-04T00:27:25;2.55;;;1.95;;
15273;SDS011;7738;49.532;11.156;2022-10-04T00:32:58;4.55;;;2.55;;
15273;SDS011;7738;49.532;11.156;2022-10-04T00:38:16;4.13;;;2.13;;
15273;SDS011;7738;49.532;11.156;2022-10-04T00:40:55;2.90;;;2.17;;
15273;SDS011;7738;49.532;11.156;2022-10-04T00:43:27;2.72;;;2.00;;
15273;SDS011;7738;49.532;11.156;2022-10-04T00:46:03;4.45;;;2.05;;
15273;SDS011;7738;49.532;11.156;2022-10-04T00:48:43;3.05;;;2.63;;
15273;SDS011;7738;49.532;11.156;2022-10-04T00:51:18;2.40;;;2.17;;
15273;SDS011;7738;49.532;11.156;2022-10-04T00:53:52;3.22;;;2.47;;
15273;SDS011;7738;49.532;11.156;2022-10-04T00:56:30;4.15;;;2.75;;
15273;SDS011;7738;49.532;11.156;2022-10-04T00:59:16;4.30;;;2.83;;
15273;SDS011;7738;49.532;11.156;2022-10-04T01:01:50;3.22;;;2.42;;
15273;SDS011;7738;49.532;11.156;2022-10-04T01:04:35;5.70;;;3.05;;
15273;SDS011;7738;49.532;11.156;2022-10-04T01:07:06;3.72;;;2.80;;
15273;SDS011;7738;49.532;11.156;2022-10-04T01:09:44;6.47;;;2.58;;
15273;SDS011;7738;49.532;11.156;2022-10-04T01:15:02;3.13;;;2.55;;
15273;SDS011;7738;49.532;11.156;2022-10-04T01:17:33;4.30;;;2.60;;
15273;SDS011;7738;49.532;11.156;2022-10-04T01:20:12;4.43;;;2.13;;
15273;SDS011;7738;49.532;11.156;2022-10-04T01:22:56;4.75;;;2.70;;
15273;SDS011;7738;49.532;11.156;2022-10-04T01:28:12;5.68;;;2.88;;
15273;SDS011;7738;49.532;11.156;2022-10-04T01:30:42;5.75;;;2.33;;
15273;SDS011;7738;49.532;11.156;2022-10-04T01:33:13;2.80;;;1.90;;
15273;SDS011;7738;49.532;11.156;2022-10-04T01:35:43;2.25;;;1.95;;
15273;SDS011;7738;49.532;11.156;2022-10-04T01:38:16;3.33;;;1.52;;
15273;SDS011;7738;49.532;11.156;2022-10-04T01:40:47;4.03;;;2.30;;
15273;SDS011;7738;49.532;11.156;2022-10-04T01:43:22;2.63;;;2.10;;
15273;SDS011;7738;49.532;11.156;2022-10-04T01:45:59;4.50;;;1.88;;
15273;SDS011;7738;49.532;11.156;2022-10-04T01:48:34;2.35;;;1.48;;
15273;SDS011;7738;49.532;11.156;2022-10-04T01:51:07;4.07;;;1.80;;
15273;SDS011;7738;49.532;11.156;2022-10-04T01:53:46;4.95;;;1.95;;
15273;SDS011;7738;49.532;11.156;2022-10-04T01:56:19;3.47;;;2.15;;
15273;SDS011;7738;49.532;11.156;2022-10-04T01:58:54;2.05;;;1.73;;
15273;SDS011;7738;49.532;11.156;2022-10-04T02:01:26;2.85;;;1.60;;
15273;SDS011;7738;49.532;11.156;2022-10-04T02:04:01;4.20;;;2.40;;
15273;SDS011;7738;49.532;11.156;2022-10-04T02:06:37;2.67;;;1.80;;
15273;SDS011;7738;49.532;11.156;2022-10-04T02:09:11;3.47;;;1.77;;
15273;SDS011;7738;49.532;11.156;2022-10-04T02:11:42;2.40;;;1.88;;
15273;SDS011;7738;49.532;11.156;2022-10-04T02:14:16;3.78;;;2.10;;
15273;SDS011;7738;49.532;11.156;2022-10-04T02:16:48;4.55;;;2.03;;
15273;SDS011;7738;49.532;11.156;2022-10-04T02:19:20;3.70;;;1.70;;
15273;SDS011;7738;49.532;11.156;2022-10-04T02:21:52;2.20;;;1.52;;
15273;SDS011;7738;49.532;11.156;2022-10-04T02:24:27;3.80;;;1.73;;
15273;SDS011;7738;49.532;11.156;2022-10-04T02:26:57;2.45;;;1.52;;
15273;SDS011;7738;49.532;11.156;2022-10-04T02:29:27;2.97;;;2.05;;
15273;SDS011;7738;49.532;11.156;2022-10-04T02:31:58;2.35;;;1.98;;
15273;SDS011;7738;49.532;11.156;2022-10-04T02:34:47;1.60;;;1.17;;
15273;SDS011;7738;49.532;11.156;2022-10-04T02:37:17;2.45;;;1.67;;
15273;SDS011;7738;49.532;11.156;2022-10-04T02:39:51;2.42;;;1.73;;
15273;SDS011;7738;49.532;11.156;2022-10-04T02:42:25;2.70;;;1.60;;
15273;SDS011;7738;49.532;11.156;2022-10-04T02:45:07;3.28;;;1.50;;
15273;SDS011;7738;49.532;11.156;2022-10-04T02:47:44;3.75;;;2.10;;
15273;SDS011;7738;49.532;11.156;2022-10-04T02:50:25;2.80;;;2.25;;
15273;SDS011;7738;49.532;11.156;2022-10-04T02:52:58;2.50;;;2.10;;
15273;SDS011;7738;49.532;11.156;2022-10-04T02:55:39;6.15;;;2.38;;
15273;SDS011;7738;49.532;11.156;2022-10-04T02:58:09;4.55;;;2.42;;
15273;SDS011;7738;49.532;11.156;2022-10-04T03:00:44;2.50;;;1.88;;
15273;SDS011;7738;49.532;11.156;2022-10-04T03:03:18;2.08;;;1.88;;
15273;SDS011;7738;49.532;11.156;2022-10-04T03:05:59;2.55;;;1.58;;
15273;SDS011;7738;49.532;11.156;2022-10-04T03:08:35;2.55;;;1.73;;
15273;SDS011;7738;49.532;11.156;2022-10-04T03:11:08;8.18;;;1.95;;
15273;SDS011;7738;49.532;11.156;2022-10-04T03:13:40;4.55;;;2.47;;
15273;SDS011;7738;49.532;11.156;2022-10-04T03:16:12;3.58;;;2.58;;
15273;SDS011;7738;49.532;11.156;2022-10-04T03:18:42;10.38;;;2.53;;
15273;SDS011;7738;49.532;11.156;2022-10-04T03:21:14;2.97;;;1.58;;
15273;SDS011;7738;49.532;11.156;2022-10-04T03:23:45;4.03;;;2.13;;
15273;SDS011;7738;49.532;11.156;2022-10-04T03:26:23;3.78;;;1.83;;
15273;SDS011;7738;49.532;11.156;2022-10-04T03:28:57;6.18;;;2.58;;
15273;SDS011;7738;49.532;11.156;2022-10-04T03:31:28;4.20;;;2.08;;
15273;SDS011;7738;49.532;11.156;2022-10-04T03:33:58;2.65;;;1.73;;
15273;SDS011;7738;49.532;11.156;2022-10-04T03:36:29;2.67;;;1.80;;
15273;SDS011;7738;49.532;11.156;2022-10-04T03:38:59;3.40;;;2.08;;
15273;SDS011;7738;49.532;11.156;2022-10-04T03:41:32;3.83;;;2.17;;
15273;SDS011;7738;49.532;11.156;2022-10-04T03:44:02;3.78;;;1.80;;
15273;SDS011;7738;49.532;11.156;2022-10-04T03:46:32;3.53;;;1.50;;
15273;SDS011;7738;49.532;11.156;2022-10-04T03:49:03;2.80;;;1.98;;
15273;SDS011;7738;49.532;11.156;2022-10-04T03:51:35;1.92;;;1.70;;
15273;SDS011;7738;49.532;11.156;2022-10-04T03:54:07;2.88;;;1.70;;
15273;SDS011;7738;49.532;11.156;2022-10-04T03:56:41;2.50;;;1.77;;
15273;SDS011;7738;49.532;11.156;2022-10-04T03:59:13;1.85;;;1.33;;
15273;SDS011;7738;49.532;11.156;2022-10-04T04:01:45;4.38;;;1.67;;
15273;SDS011;7738;49.532;11.156;2022-10-04T04:04:18;3.15;;;2.08;;
15273;SDS011;7738;49.532;11.156;2022-10-04T04:06:52;3.45;;;2.35;;
15273;SDS011;7738;49.532;11.156;2022-10-04T04:09:33;3.33;;;2.00;;
15273;SDS011;7738;49.532;11.156;2022-10-04T04:12:08;4.72;;;1.73;;
15273;SDS011;7738;49.532;11.156;2022-10-04T04:17:16;3.83;;;2.40;;
15273;SDS011;7738;49.532;11.156;2022-10-04T04:19:47;3.47;;;2.60;;
15273;SDS011;7738;49.532;11.156;2022-10-04T04:22:17;2.42;;;2.00;;
15273;SDS011;7738;49.532;11.156;2022-10-04T04:24:48;3.28;;;2.05;;
15273;SDS011;7738;49.532;11.156;2022-10-04T04:27:21;2.85;;;2.10;;
15273;SDS011;7738;49.532;11.156;2022-10-04T04:29:54;5.70;;;3.13;;
15273;SDS011;7738;49.532;11.156;2022-10-04T04:32:29;4.75;;;2.50;;
15273;SDS011;7738;49.532;11.156;2022-10-04T04:35:01;3.95;;;2.10;;
15273;SDS011;7738;49.532;11.156;2022-10-04T04:37:33;4.20;;;2.08;;
15273;SDS011;7738;49.532;11.156;2022-10-04T04:40:12;4.10;;;1.92;;
15273;SDS011;7738;49.532;11.156;2022-10-04T04:42:50;5.37;;;2.30;;
15273;SDS011;7738;49.532;11.156;2022-10-04T04:45:21;7.00;;;2.80;;
15273;SDS011;7738;49.532;11.156;2022-10-04T04:47:55;5.82;;;2.30;;
15273;SDS011;7738;49.532;11.156;2022-10-04T04:50:27;6.85;;;2.63;;
15273;SDS011;7738;49.532;11.156;2022-10-04T04:53:02;6.65;;;3.90;;
15273;SDS011;7738;49.532;11.156;2022-10-04T04:55:35;8.57;;;2.72;;
15273;SDS011;7738;49.532;11.156;2022-10-04T04:58:32;3.67;;;2.55;;
15273;SDS011;7738;49.532;11.156;2022-10-04T05:01:06;5.85;;;2.65;;
15273;SDS011;7738;49.532;11.156;2022-10-04T05:03:58;4.05;;;2.60;;
15273;SDS011;7738;49.532;11.156;2022-10-04T05:06:29;8.23;;;2.70;;
15273;SDS011;7738;49.532;11.156;2022-10-04T05:09:00;4.80;;;2.60;;
15273;SDS011;7738;49.532;11.156;2022-10-04T05:11:31;6.00;;;2.97;;
15273;SDS011;7738;49.532;11.156;2022-10-04T05:14:05;4.07;;;2.58;;
15273;SDS011;7738;49.532;11.156;2022-10-04T05:16:38;5.28;;;2.40;;
15273;SDS011;7738;49.532;11.156;2022-10-04T05:19:11;3.63;;;2.35;;
15273;SDS011;7738;49.532;11.156;2022-10-04T05:21:43;3.55;;;2.60;;
15273;SDS011;7738;49.532;11.156;2022-10-04T05:24:17;3.15;;;2.50;;
15273;SDS011;7738;49.532;11.156;2022-10-04T05:26:50;4.35;;;2.42;;
15273;SDS011;7738;49.532;11.156;2022-10-04T05:29:25;4.80;;;2.65;;
15273;SDS011;7738;49.532;11.156;2022-10-04T05:31:59;5.90;;;2.50;;
15273;SDS011;7738;49.532;11.156;2022-10-04T05:34:37;6.03;;;2.67;;
15273;SDS011;7738;49.532;11.156;2022-10-04T05:39:56;3.45;;;2.55;;
15273;SDS011;7738;49.532;11.156;2022-10-04T05:42:36;5.60;;;2.45;;
15273;SDS011;7738;49.532;11.156;2022-10-04T05:45:15;4.40;;;2.90;;
15273;SDS011;7738;49.532;11.156;2022-10-04T05:47:46;2.78;;;2.00;;
15273;SDS011;7738;49.532;11.156;2022-10-04T05:50:19;6.25;;;2.72;;
15273;SDS011;7738;49.532;11.156;2022-10-04T05:53:06;5.53;;;3.33;;
15273;SDS011;7738;49.532;11.156;2022-10-04T05:55:52;7.78;;;2.75;;
15273;SDS011;7738;49.532;11.156;2022-10-04T05:58:29;8.68;;;4.10;;
15273;SDS011;7738;49.532;11.156;2022-10-04T06:01:22;7.63;;;3.35;;
15273;SDS011;7738;49.532;11.156;2022-10-04T06:04:14;3.83;;;2.72;;
15273;SDS011;7738;49.532;11.156;2022-10-04T06:06:46;4.05;;;2.92;;
15273;SDS011;7738;49.532;11.156;2022-10-04T06:09:24;6.43;;;2.58;;
15273;SDS011;7738;49.532;11.156;2022-10-04T06:12:00;7.88;;;3.85;;
15273;SDS011;7738;49.532;11.156;2022-10-04T06:14:43;4.05;;;3.35;;
15273;SDS011;7738;49.532;11.156;2022-10-04T06:17:31;5.28;;;2.55;;
15273;SDS011;7738;49.532;11.156;2022-10-04T06:20:20;3.88;;;2.78;;
15273;SDS011;7738;49.532;11.156;2022-10-04T06:22:55;5.80;;;2.90;;
15273;SDS011;7738;49.532;11.156;2022-10-04T06:25:28;6.60;;;3.33;;
15273;SDS011;7738;49.532;11.156;2022-10-04T06:28:09;7.45;;;3.30;;
15273;SDS011;7738;49.532;11.156;2022-10-04T06:30:47;6.35;;;2.80;;
15273;SDS011;7738;49.532;11.156;2022-10-04T06:33:39;6.32;;;3.60;;
15273;SDS011;7738;49.532;11.156;2022-10-04T06:39:20;4.72;;;3.00;;
15273;SDS011;7738;49.532;11.156;2022-10-04T06:42:07;8.93;;;4.07;;
15273;SDS011;7738;49.532;11.156;2022-10-04T06:44:49;5.25;;;3.47;;
15273;SDS011;7738;49.532;11.156;2022-10-04T06:47:27;6.53;;;4.28;;
15273;SDS011;7738;49.532;11.156;2022-10-04T06:50:09;7.45;;;3.72;;
15273;SDS011;7738;49.532;11.156;2022-10-04T06:52:47;9.63;;;4.18;;
15273;SDS011;7738;49.532;11.156;2022-10-04T06:55:34;6.10;;;3.75;;
15273;SDS011;7738;49.532;11.156;2022-10-04T06:58:11;6.15;;;3.78;;
15273;SDS011;7738;49.532;11.156;2022-10-04T07:00:49;9.35;;;4.13;;
15273;SDS011;7738;49.532;11.156;2022-10-04T07:03:25;9.75;;;4.75;;
15273;SDS011;7738;49.532;11.156;2022-10-04T07:06:04;7.72;;;4.93;;
15273;SDS011;7738;49.532;11.156;2022-10-04T07:08:38;7.18;;;3.63;;
15273;SDS011;7738;49.532;11.156;2022-10-04T07:11:11;8.82;;;4.20;;
15273;SDS011;7738;49.532;11.156;2022-10-04T07:13:46;7.45;;;3.80;;
15273;SDS011;7738;49.532;11.156;2022-10-04T07:16:22;9.98;;;4.20;;
15273;SDS011;7738;49.532;11.156;2022-10-04T07:18:56;8.13;;;4.10;;
15273;SDS011;7738;49.532;11.156;2022-10-04T07:21:35;7.30;;;4.53;;
15273;SDS011;7738;49.532;11.156;2022-10-04T07:24:12;8.00;;;4.45;;
15273;SDS011;7738;49.532;11.156;2022-10-04T07:26:48;10.02;;;5.32;;
15273;SDS011;7738;49.532;11.156;2022-10-04T07:29:19;10.88;;;5.50;;
15273;SDS011;7738;49.532;11.156;2022-10-04T07:31:50;9.93;;;5.07;;
15273;SDS011;7738;49.532;11.156;2022-10-04T07:34:22;13.90;;;5.43;;
15273;SDS011;7738;49.532;11.156;2022-10-04T07:36:59;13.13;;;5.30;;
15273;SDS011;7738;49.532;11.156;2022-10-04T07:39:39;9.73;;;5.18;;
15273;SDS011;7738;49.532;11.156;2022-10-04T07:42:19;10.32;;;5.03;;
15273;SDS011;7738;49.532;11.156;2022-10-04T07:44:58;9.55;;;4.93;;
15273;SDS011;7738;49.532;11.156;2022-10-04T07:47:32;12.93;;;4.88;;
15273;SDS011;7738;49.532;11.156;2022-10-04T07:50:13;12.57;;;5.03;;
15273;SDS011;7738;49.532;11.156;2022-10-04T07:52:55;8.35;;;4.18;;
15273;SDS011;7738;49.532;11.156;2022-10-04T07:55:31;11.02;;;5.07;;
15273;SDS011;7738;49.532;11.156;2022-10-04T07:58:08;6.70;;;4.55;;
15273;SDS011;7738;49.532;11.156;2022-10-04T08:00:43;7.28;;;3.90;;
15273;SDS011;7738;49.532;11.156;2022-10-04T08:03:26;8.40;;;3.63;;
15273;SDS011;7738;49.532;11.156;2022-10-04T08:06:15;6.20;;;3.95;;
15273;SDS011;7738;49.532;11.156;2022-10-04T08:08:57;6.05;;;3.90;;
15273;SDS011;7738;49.532;11.156;2022-10-04T08:11:32;7.00;;;4.05;;
15273;SDS011;7738;49.532;11.156;2022-10-04T08:14:15;6.70;;;3.88;;
15273;SDS011;7738;49.532;11.156;2022-10-04T08:16:50;4.65;;;3.53;;
15273;SDS011;7738;49.532;11.156;2022-10-04T08:19:27;4.75;;;3.80;;
15273;SDS011;7738;49.532;11.156;2022-10-04T08:22:02;6.72;;;4.03;;
15273;SDS011;7738;49.532;11.156;2022-10-04T08:24:46;10.40;;;4.28;;
15273;SDS011;7738;49.532;11.156;2022-10-04T08:27:35;7.25;;;3.45;;
15273;SDS011;7738;49.532;11.156;2022-10-04T08:30:44;5.70;;;4.25;;
15273;SDS011;7738;49.532;11.156;2022-10-04T08:33:18;6.72;;;4.47;;
15273;SDS011;7738;49.532;11.156;2022-10-04T08:35:59;6.22;;;3.78;;
15273;SDS011;7738;49.532;11.156;2022-10-04T08:38:40;5.43;;;3.50;;
15273;SDS011;7738;49.532;11.156;2022-10-04T08:52:51;6.63;;;3.28;;
15273;SDS011;7738;49.532;11.156;2022-10-04T08:55:42;5.97;;;3.13;;
15273;SDS011;7738;49.532;11.156;2022-10-04T08:58:22;6.00;;;4.03;;
15273;SDS011;7738;49.532;11.156;2022-10-04T09:01:18;4.50;;;3.15;;
15273;SDS011;7738;49.532;11.156;2022-10-04T09:04:01;6.65;;;3.00;;
15273;SDS011;7738;49.532;11.156;2022-10-04T09:06:41;10.23;;;3.10;;
15273;SDS011;7738;49.532;11.156;2022-10-04T09:09:29;3.10;;;2.80;;
15273;SDS011;7738;49.532;11.156;2022-10-04T09:12:29;6.28;;;2.97;;
15273;SDS011;7738;49.532;11.156;2022-10-04T09:15:20;6.55;;;2.97;;
15273;SDS011;7738;49.532;11.156;2022-10-04T09:18:06;6.55;;;2.60;;
15273;SDS011;7738;49.532;11.156;2022-10-04T09:20:46;8.20;;;2.05;;
15273;SDS011;7738;49.532;11.156;2022-10-04T09:26:19;4.03;;;2.30;;
15273;SDS011;7738;49.532;11.156;2022-10-04T09:29:01;4.45;;;2.05;;
15273;SDS011;7738;49.532;11.156;2022-10-04T09:31:49;2.33;;;1.40;;
15273;SDS011;7738;49.532;11.156;2022-10-04T09:40:20;2.70;;;1.45;;
15273;SDS011;7738;49.532;11.156;2022-10-04T09:43:21;2.63;;;1.10;;
15273;SDS011;7738;49.532;11.156;2022-10-04T09:46:26;5.00;;;1.60;;
15273;SDS011;7738;49.532;11.156;2022-10-04T09:49:28;6.63;;;1.55;;
15273;SDS011;7738;49.532;11.156;2022-10-04T09:52:09;2.13;;;1.00;;
15273;SDS011;7738;49.532;11.156;2022-10-04T09:54:53;2.78;;;1.40;;
15273;SDS011;7738;49.532;11.156;2022-10-04T09:57:37;3.70;;;1.20;;
15273;SDS011;7738;49.532;11.156;2022-10-04T10:00:11;6.90;;;1.33;;
15273;SDS011;7738;49.532;11.156;2022-10-04T10:03:02;2.92;;;1.00;;
15273;SDS011;7738;49.532;11.156;2022-10-04T10:05:55;4.03;;;1.10;;
15273;SDS011;7738;49.532;11.156;2022-10-04T10:08:47;3.05;;;1.23;;
15273;SDS011;7738;49.532;11.156;2022-10-04T10:11:22;3.35;;;0.80;;
15273;SDS011;7738;49.532;11.156;2022-10-04T10:14:29;3.95;;;0.60;;
15273;SDS011;7738;49.532;11.156;2022-10-04T10:17:07;3.47;;;0.85;;
15273;SDS011;7738;49.532;11.156;2022-10-04T10:22:58;1.50;;;0.60;;
15273;SDS011;7738;49.532;11.156;2022-10-04T10:25:38;2.33;;;0.60;;
15273;SDS011;7738;49.532;11.156;2022-10-04T10:28:22;3.50;;;0.80;;
15273;SDS011;7738;49.532;11.156;2022-10-04T10:31:20;6.43;;;0.95;;
15273;SDS011;7738;49.532;11.156;2022-10-04T10:33:59;4.68;;;0.85;;
15273;SDS011;7738;49.532;11.156;2022-10-04T10:36:51;4.70;;;0.75;;
15273;SDS011;7738;49.532;11.156;2022-10-04T10:42:27;2.47;;;0.60;;
15273;SDS011;7738;49.532;11.156;2022-10-04T10:45:07;2.00;;;0.57;;
15273;SDS011;7738;49.532;11.156;2022-10-04T10:47:52;2.50;;;0.80;;
15273;SDS011;7738;49.532;11.156;2022-10-04T11:02:12;1.35;;;0.40;;
15273;SDS011;7738;49.532;11.156;2022-10-04T11:05:23;3.13;;;0.80;;
15273;SDS011;7738;49.532;11.156;2022-10-04T11:07:59;2.33;;;0.38;;
15273;SDS011;7738;49.532;11.156;2022-10-04T11:10:49;2.67;;;0.57;;
15273;SDS011;7738;49.532;11.156;2022-10-04T11:16:18;0.85;;;0.30;;
15273;SDS011;7738;49.532;11.156;2022-10-04T11:22:08;1.52;;;0.50;;
15273;SDS011;7738;49.532;11.156;2022-10-04T11:24:52;4.55;;;0.65;;
15273;SDS011;7738;49.532;11.156;2022-10-04T11:27:34;2.00;;;0.25;;
15273;SDS011;7738;49.532;11.156;2022-10-04T11:30:18;8.77;;;0.57;;
15273;SDS011;7738;49.532;11.156;2022-10-04T11:33:04;1.33;;;0.30;;
15273;SDS011;7738;49.532;11.156;2022-10-04T11:35:44;3.47;;;0.80;;
15273;SDS011;7738;49.532;11.156;2022-10-04T11:38:28;0.85;;;0.30;;
15273;SDS011;7738;49.532;11.156;2022-10-04T11:41:03;1.30;;;0.30;;
15273;SDS011;7738;49.532;11.156;2022-10-04T11:43:51;2.95;;;0.35;;
15273;SDS011;7738;49.532;11.156;2022-10-04T11:46:28;2.03;;;0.60;;
15273;SDS011;7738;49.532;11.156;2022-10-04T11:49:19;3.97;;;0.55;;
15273;SDS011;7738;49.532;11.156;2022-10-04T11:54:49;1.80;;;0.63;;
15273;SDS011;7738;49.532;11.156;2022-10-04T11:57:36;1.30;;;0.40;;
15273;SDS011;7738;49.532;11.156;2022-10-04T12:00:11;5.35;;;0.47;;
15273;SDS011;7738;49.532;11.156;2022-10-04T12:05:57;2.50;;;0.60;;
15273;SDS011;7738;49.532;11.156;2022-10-04T12:08:36;0.80;;;0.20;;
15273;SDS011;7738;49.532;11.156;2022-10-04T12:14:20;3.38;;;0.40;;
15273;SDS011;7738;49.532;11.156;2022-10-04T12:16:55;1.55;;;0.38;;
15273;SDS011;7738;49.532;11.156;2022-10-04T12:19:49;1.60;;;0.47;;
15273;SDS011;7738;49.532;11.156;2022-10-04T12:22:28;3.33;;;0.40;;
15273;SDS011;7738;49.532;11.156;2022-10-04T12:28:11;1.27;;;0.22;;
15273;SDS011;7738;49.532;11.156;2022-10-04T12:30:55;1.48;;;0.20;;
15273;SDS011;7738;49.532;11.156;2022-10-04T12:33:38;1.77;;;0.30;;
15273;SDS011;7738;49.532;11.156;2022-10-04T12:36:19;7.53;;;0.85;;
15273;SDS011;7738;49.532;11.156;2022-10-04T12:38:58;2.67;;;0.40;;
15273;SDS011;7738;49.532;11.156;2022-10-04T12:41:39;1.95;;;0.68;;
15273;SDS011;7738;49.532;11.156;2022-10-04T12:44:21;4.10;;;0.30;;
15273;SDS011;7738;49.532;11.156;2022-10-04T12:46:59;0.90;;;0.25;;
15273;SDS011;7738;49.532;11.156;2022-10-04T12:49:36;2.05;;;0.50;;
15273;SDS011;7738;49.532;11.156;2022-10-04T12:52:14;1.33;;;0.25;;
15273;SDS011;7738;49.532;11.156;2022-10-04T12:54:46;3.13;;;0.40;;
15273;SDS011;7738;49.532;11.156;2022-10-04T12:57:27;2.30;;;0.20;;
15273;SDS011;7738;49.532;11.156;2022-10-04T13:00:02;1.80;;;0.38;;
15273;SDS011;7738;49.532;11.156;2022-10-04T13:02:41;3.10;;;0.50;;
15273;SDS011;7738;49.532;11.156;2022-10-04T13:05:17;2.28;;;0.40;;
15273;SDS011;7738;49.532;11.156;2022-10-04T13:07:58;3.17;;;0.30;;
15273;SDS011;7738;49.532;11.156;2022-10-04T13:10:41;1.00;;;0.40;;
15273;SDS011;7738;49.532;11.156;2022-10-04T13:13:26;1.52;;;0.15;;
15273;SDS011;7738;49.532;11.156;2022-10-04T13:16:19;0.70;;;0.10;;
15273;SDS011;7738;49.532;11.156;2022-10-04T13:19:18;2.22;;;0.20;;
15273;SDS011;7738;49.532;11.156;2022-10-04T13:24:37;1.75;;;0.47;;
15273;SDS011;7738;49.532;11.156;2022-10-04T13:27:33;3.13;;;0.60;;
15273;SDS011;7738;49.532;11.156;2022-10-04T13:30:12;4.20;;;0.75;;
15273;SDS011;7738;49.532;11.156;2022-10-04T13:32:47;0.60;;;0.15;;
15273;SDS011;7738;49.532;11.156;2022-10-04T13:35:23;2.65;;;0.20;;
15273;SDS011;7738;49.532;11.156;2022-10-04T13:38:06;4.38;;;0.40;;
15273;SDS011;7738;49.532;11.156;2022-10-04T13:40:54;4.90;;;0.50;;
15273;SDS011;7738;49.532;11.156;2022-10-04T13:46:18;1.33;;;0.10;;
15273;SDS011;7738;49.532;11.156;2022-10-04T13:48:59;1.20;;;0.30;;
15273;SDS011;7738;49.532;11.156;2022-10-04T13:51:40;2.85;;;0.40;;
15273;SDS011;7738;49.532;11.156;2022-10-04T13:54:37;1.40;;;0.20;;
15273;SDS011;7738;49.532;11.156;2022-10-04T13:57:22;2.08;;;0.30;;
15273;SDS011;7738;49.532;11.156;2022-10-04T13:59:58;1.08;;;0.22;;
15273;SDS011;7738;49.532;11.156;2022-10-04T14:02:51;0.50;;;0.13;;
15273;SDS011;7738;49.532;11.156;2022-10-04T14:05:36;2.58;;;0.30;;
15273;SDS011;7738;49.532;11.156;2022-10-04T14:11:11;0.68;;;0.10;;
15273;SDS011;7738;49.532;11.156;2022-10-04T14:13:51;3.55;;;0.30;;
15273;SDS011;7738;49.532;11.156;2022-10-04T14:16:56;0.98;;;0.28;;
15273;SDS011;7738;49.532;11.156;2022-10-04T14:19:37;3.33;;;0.40;;
15273;SDS011;7738;49.532;11.156;2022-10-04T14:22:18;0.52;;;0.10;;
15273;SDS011;7738;49.532;11.156;2022-10-04T14:25:29;3.80;;;0.47;;
15273;SDS011;7738;49.532;11.156;2022-10-04T14:31:04;2.05;;;0.30;;
15273;SDS011;7738;49.532;11.156;2022-10-04T14:33:56;0.85;;;0.22;;
15273;SDS011;7738;49.532;11.156;2022-10-04T14:36:49;1.55;;;0.32;;
15273;SDS011;7738;49.532;11.156;2022-10-04T14:39:53;1.20;;;0.28;;
15273;SDS011;7738;49.532;11.156;2022-10-04T14:42:36;1.85;;;0.30;;
15273;SDS011;7738;49.532;11.156;2022-10-04T14:53:53;0.82;;;0.30;;
15273;SDS011;7738;49.532;11.156;2022-10-04T14:56:32;1.33;;;0.22;;
15273;SDS011;7738;49.532;11.156;2022-10-04T14:59:08;1.50;;;0.30;;
15273;SDS011;7738;49.532;11.156;2022-10-04T15:07:34;6.03;;;0.32;;
15273;SDS011;7738;49.532;11.156;2022-10-04T15:10:09;0.40;;;0.10;;
15273;SDS011;7738;49.532;11.156;2022-10-04T15:15:53;2.78;;;0.28;;
15273;SDS011;7738;49.532;11.156;2022-10-04T15:18:44;1.33;;;0.20;;
15273;SDS011;7738;49.532;11.156;2022-10-04T15:21:37;1.88;;;0.93;;
15273;SDS011;7738;49.532;11.156;2022-10-04T15:24:19;2.25;;;0.22;;
15273;SDS011;7738;49.532;11.156;2022-10-04T15:29:43;0.75;;;0.20;;
15273;SDS011;7738;49.532;11.156;2022-10-04T15:32:23;1.88;;;0.55;;
15273;SDS011;7738;49.532;11.156;2022-10-04T15:35:04;2.22;;;0.40;;
15273;SDS011;7738;49.532;11.156;2022-10-04T15:37:41;2.88;;;0.75;;
15273;SDS011;7738;49.532;11.156;2022-10-04T15:40:14;2.75;;;0.40;;
15273;SDS011;7738;49.532;11.156;2022-10-04T15:45:45;2.08;;;0.40;;
15273;SDS011;7738;49.532;11.156;2022-10-04T15:48:26;2.83;;;0.30;;
15273;SDS011;7738;49.532;11.156;2022-10-04T15:51:17;6.22;;;0.73;;
15273;SDS011;7738;49.532;11.156;2022-10-04T15:53:55;3.85;;;1.40;;
15273;SDS011;7738;49.532;11.156;2022-10-04T15:56:43;2.97;;;1.45;;
15273;SDS011;7738;49.532;11.156;2022-10-04T16:02:19;1.85;;;1.15;;
15273;SDS011;7738;49.532;11.156;2022-10-04T16:05:23;4.57;;;1.90;;
15273;SDS011;7738;49.532;11.156;2022-10-04T16:08:01;2.63;;;1.13;;
15273;SDS011;7738;49.532;11.156;2022-10-04T16:10:46;3.28;;;1.60;;
15273;SDS011;7738;49.532;11.156;2022-10-04T16:13:24;1.75;;;1.00;;
15273;SDS011;7738;49.532;11.156;2022-10-04T16:19:14;2.33;;;0.80;;
15273;SDS011;7738;49.532;11.156;2022-10-04T16:21:49;2.00;;;0.50;;
15273;SDS011;7738;49.532;11.156;2022-10-04T16:24:27;2.00;;;1.08;;
15273;SDS011;7738;49.532;11.156;2022-10-04T16:30:11;2.63;;;0.80;;
15273;SDS011;7738;49.532;11.156;2022-10-04T16:35:45;1.67;;;0.80;;
15273;SDS011;7738;49.532;11.156;2022-10-04T16:38:19;3.53;;;0.68;;
15273;SDS011;7738;49.532;11.156;2022-10-04T16:41:08;1.42;;;0.80;;
15273;SDS011;7738;49.532;11.156;2022-10-04T16:43:46;4.72;;;0.98;;
15273;SDS011;7738;49.532;11.156;2022-10-04T16:46:22;1.67;;;0.70;;
15273;SDS011;7738;49.532;11.156;2022-10-04T16:48:56;5.10;;;0.93;;
15273;SDS011;7738;49.532;11.156;2022-10-04T16:54:45;2.20;;;0.88;;
15273;SDS011;7738;49.532;11.156;2022-10-04T16:57:27;1.30;;;0.28;;
15273;SDS011;7738;49.532;11.156;2022-10-04T16:59:58;1.77;;;0.60;;
15273;SDS011;7738;49.532;11.156;2022-10-04T17:02:37;2.55;;;1.00;;
15273;SDS011;7738;49.532;11.156;2022-10-04T17:05:29;1.00;;;0.52;;
15273;SDS011;7738;49.532;11.156;2022-10-04T17:14:04;2.65;;;0.88;;
15273;SDS011;7738;49.532;11.156;2022-10-04T17:16:50;4.95;;;0.73;;
15273;SDS011;7738;49.532;11.156;2022-10-04T17:19:27;1.63;;;0.85;;
15273;SDS011;7738;49.532;11.156;2022-10-04T17:22:05;5.65;;;2.53;;
15273;SDS011;7738;49.532;11.156;2022-10-04T17:24:41;10.52;;;4.75;;
15273;SDS011;7738;49.532;11.156;2022-10-04T17:27:17;12.90;;;4.63;;
15273;SDS011;7738;49.532;11.156;2022-10-04T17:29:54;9.85;;;3.58;;
15273;SDS011;7738;49.532;11.156;2022-10-04T17:32:36;6.47;;;2.90;;
